Terminal Aerodrome Forecast
Issued by NWS Glasgow, MT

Home | Current Version | Previous Version | Text Only | Print | Product List | Glossary On
Versions: 1 2 3 4 5 6 7 8 9 10 11 12 13 14
000
FTUS45 KGGW 050500
TAFGGW
TAF
KGGW 050520Z 0506/0606 06013KT P6SM VCTS SCT050 BKN100CB
      TEMPO 0506/0508 VRB30G50KT 1SM TS
     FM050900 36011KT P6SM VCSH BKN050
     FM051800 34012KT P6SM BKN060
     FM060300 32008KT P6SM BKN060=

USA.gov is the U.S. government's official web portal to all federal, state and local government web resources and services.